Goldenrod, Florida
Current Conditions -  °F | °C
As of 12:53 AM on Saturday 29 Nov 2014 (Local Time) from KORL Reporting Station
Clear Clear  
Wind Chill: 44°   Ceiling: Unl
Heat Index: 47°   Visibility: 10mi
Dew Point: 41°   Wind: 7mph
Humidity: 80%   Direction: 340°NNW
Pressure: 30.27"   Gusts: NA
Location:  28.61°N, 81.28°W
Report Text: KORL 290553Z AUTO 34006KT 10SM CLR 08/05 A3027 RMK AO2 SLP256 T00830050 10122 20083 58008
Loading
Personal Weather Stations






























Interactive Weather Map New forecast layout! Learn more

10-Day Weather Forecast

Advertisements
Track Severe Weather on mobile